sensor_id;sensor_type;location;lat;lon;timestamp;pressure;altitude;pressure_sealevel;temperature;humidity
75157;BME280;63736;50.076;8.198;2022-12-18T00:01:26;100848.72;;;-7.97;100.00
75157;BME280;63736;50.076;8.198;2022-12-18T00:03:55;100848.53;;;-8.08;100.00
75157;BME280;63736;50.076;8.198;2022-12-18T00:06:22;100841.50;;;-8.18;100.00
75157;BME280;63736;50.076;8.198;2022-12-18T00:08:48;100837.06;;;-8.27;100.00
75157;BME280;63736;50.076;8.198;2022-12-18T00:11:16;100843.03;;;-8.33;100.00
75157;BME280;63736;50.076;8.198;2022-12-18T00:13:42;100848.09;;;-8.39;100.00
75157;BME280;63736;50.076;8.198;2022-12-18T00:16:17;100847.19;;;-8.45;100.00
75157;BME280;63736;50.076;8.198;2022-12-18T00:18:44;100845.34;;;-8.53;100.00
75157;BME280;63736;50.076;8.198;2022-12-18T00:21:11;100842.69;;;-8.57;100.00
75157;BME280;63736;50.076;8.198;2022-12-18T00:23:38;100830.53;;;-8.61;100.00
75157;BME280;63736;50.076;8.198;2022-12-18T00:26:06;100830.44;;;-8.68;100.00
75157;BME280;63736;50.076;8.198;2022-12-18T00:28:32;100831.22;;;-8.73;100.00
75157;BME280;63736;50.076;8.198;2022-12-18T00:45:02;100839.53;;;-8.94;100.00
75157;BME280;63736;50.076;8.198;2022-12-18T00:47:27;100853.31;;;-8.95;100.00
75157;BME280;63736;50.076;8.198;2022-12-18T00:49:56;100846.34;;;-8.98;100.00
75157;BME280;63736;50.076;8.198;2022-12-18T00:52:21;100835.09;;;-9.00;100.00
75157;BME280;63736;50.076;8.198;2022-12-18T00:54:48;100846.34;;;-8.98;100.00
75157;BME280;63736;50.076;8.198;2022-12-18T00:57:14;100845.41;;;-9.03;100.00
75157;BME280;63736;50.076;8.198;2022-12-18T00:59:45;100850.59;;;-9.03;100.00
75157;BME280;63736;50.076;8.198;2022-12-18T01:02:13;100854.81;;;-9.08;100.00
75157;BME280;63736;50.076;8.198;2022-12-18T01:04:41;100839.22;;;-9.11;100.00
75157;BME280;63736;50.076;8.198;2022-12-18T01:07:06;100841.75;;;-9.13;100.00
75157;BME280;63736;50.076;8.198;2022-12-18T01:09:31;100862.47;;;-9.13;100.00
75157;BME280;63736;50.076;8.198;2022-12-18T01:11:57;100866.78;;;-9.15;100.00
75157;BME280;63736;50.076;8.198;2022-12-18T01:14:25;100850.34;;;-9.16;100.00
75157;BME280;63736;50.076;8.198;2022-12-18T01:16:50;100845.25;;;-9.13;100.00
75157;BME280;63736;50.076;8.198;2022-12-18T01:19:15;100843.53;;;-9.10;100.00
75157;BME280;63736;50.076;8.198;2022-12-18T01:21:41;100847.91;;;-9.08;100.00
75157;BME280;63736;50.076;8.198;2022-12-18T01:24:06;100852.22;;;-9.07;100.00
75157;BME280;63736;50.076;8.198;2022-12-18T01:26:32;100868.63;;;-9.06;100.00
75157;BME280;63736;50.076;8.198;2022-12-18T01:28:58;100881.66;;;-9.03;100.00
75157;BME280;63736;50.076;8.198;2022-12-18T01:31:28;100881.66;;;-9.02;100.00
75157;BME280;63736;50.076;8.198;2022-12-18T01:33:54;100891.97;;;-9.05;100.00
75157;BME280;63736;50.076;8.198;2022-12-18T01:36:43;100890.25;;;-9.04;100.00
75157;BME280;63736;50.076;8.198;2022-12-18T01:39:13;100894.47;;;-9.09;100.00
75157;BME280;63736;50.076;8.198;2022-12-18T01:41:38;100892.66;;;-9.15;100.00
75157;BME280;63736;50.076;8.198;2022-12-18T01:49:56;100880.44;;;-9.21;100.00
75157;BME280;63736;50.076;8.198;2022-12-18T01:52:24;100872.66;;;-9.22;100.00
75157;BME280;63736;50.076;8.198;2022-12-18T01:54:50;100868.31;;;-9.23;100.00
75157;BME280;63736;50.076;8.198;2022-12-18T01:57:19;100859.69;;;-9.24;100.00
75157;BME280;63736;50.076;8.198;2022-12-18T01:59:49;100867.50;;;-9.21;100.00
75157;BME280;63736;50.076;8.198;2022-12-18T02:02:16;100872.75;;;-9.19;100.00
75157;BME280;63736;50.076;8.198;2022-12-18T02:04:42;100871.00;;;-9.19;100.00
75157;BME280;63736;50.076;8.198;2022-12-18T02:07:17;100871.97;;;-9.14;100.00
75157;BME280;63736;50.076;8.198;2022-12-18T02:09:53;100859.16;;;-9.07;100.00
75157;BME280;63736;50.076;8.198;2022-12-18T02:12:24;100871.41;;;-8.97;100.00
75157;BME280;63736;50.076;8.198;2022-12-18T02:20:20;100851.94;;;-8.75;100.00
75157;BME280;63736;50.076;8.198;2022-12-18T02:23:08;100854.56;;;-8.70;100.00
75157;BME280;63736;50.076;8.198;2022-12-18T02:28:28;100851.25;;;-8.61;100.00
75157;BME280;63736;50.076;8.198;2022-12-18T02:30:58;100838.31;;;-8.60;100.00
75157;BME280;63736;50.076;8.198;2022-12-18T02:33:27;100834.94;;;-8.56;100.00
75157;BME280;63736;50.076;8.198;2022-12-18T02:35:57;100833.38;;;-8.46;100.00
75157;BME280;63736;50.076;8.198;2022-12-18T02:38:24;100830.84;;;-8.38;100.00
75157;BME280;63736;50.076;8.198;2022-12-18T02:40:51;100824.03;;;-8.33;100.00
75157;BME280;63736;50.076;8.198;2022-12-18T02:43:20;100826.59;;;-8.33;100.00
75157;BME280;63736;50.076;8.198;2022-12-18T02:45:57;100838.75;;;-8.29;100.00
75157;BME280;63736;50.076;8.198;2022-12-18T02:48:27;100831.00;;;-8.26;100.00
75157;BME280;63736;50.076;8.198;2022-12-18T02:51:08;100841.50;;;-8.18;100.00
75157;BME280;63736;50.076;8.198;2022-12-18T02:53:42;100848.44;;;-8.14;100.00
75157;BME280;63736;50.076;8.198;2022-12-18T03:01:16;100848.44;;;-8.14;100.00
75157;BME280;63736;50.076;8.198;2022-12-18T03:03:50;100839.00;;;-8.10;100.00
75157;BME280;63736;50.076;8.198;2022-12-18T03:06:25;100844.28;;;-8.04;100.00
75157;BME280;63736;50.076;8.198;2022-12-18T03:08:57;100852.13;;;-8.00;100.00
75157;BME280;63736;50.076;8.198;2022-12-18T03:11:24;100853.03;;;-7.96;100.00
75157;BME280;63736;50.076;8.198;2022-12-18T03:14:12;100861.75;;;-7.89;100.00
75157;BME280;63736;50.076;8.198;2022-12-18T03:16:40;100854.00;;;-7.88;100.00
75157;BME280;63736;50.076;8.198;2022-12-18T03:19:13;100847.09;;;-7.86;100.00
75157;BME280;63736;50.076;8.198;2022-12-18T03:21:43;100840.22;;;-7.85;100.00
75157;BME280;63736;50.076;8.198;2022-12-18T03:24:11;100846.25;;;-7.85;100.00
75157;BME280;63736;50.076;8.198;2022-12-18T03:26:39;100833.31;;;-7.83;100.00
75157;BME280;63736;50.076;8.198;2022-12-18T03:29:16;100834.22;;;-7.81;100.00
75157;BME280;63736;50.076;8.198;2022-12-18T03:31:49;100842.84;;;-7.82;100.00
75157;BME280;63736;50.076;8.198;2022-12-18T03:34:21;100834.22;;;-7.81;100.00
75157;BME280;63736;50.076;8.198;2022-12-18T03:36:48;100835.03;;;-7.85;100.00
75157;BME280;63736;50.076;8.198;2022-12-18T03:39:14;100835.84;;;-7.88;100.00
75157;BME280;63736;50.076;8.198;2022-12-18T03:42:00;100836.69;;;-7.89;100.00
75157;BME280;63736;50.076;8.198;2022-12-18T03:44:55;100840.13;;;-7.90;100.00
75157;BME280;63736;50.076;8.198;2022-12-18T03:47:38;100834.09;;;-7.92;100.00
75157;BME280;63736;50.076;8.198;2022-12-18T03:50:17;100834.03;;;-7.95;100.00
75157;BME280;63736;50.076;8.198;2022-12-18T03:52:52;100831.44;;;-7.95;100.00
75157;BME280;63736;50.076;8.198;2022-12-18T03:55:21;100834.94;;;-7.93;100.00
75157;BME280;63736;50.076;8.198;2022-12-18T03:57:48;100841.81;;;-7.93;100.00
75157;BME280;63736;50.076;8.198;2022-12-18T04:00:17;100830.59;;;-7.92;100.00
75157;BME280;63736;50.076;8.198;2022-12-18T04:02:46;100834.09;;;-7.89;100.00
75157;BME280;63736;50.076;8.198;2022-12-18T04:05:47;100833.31;;;-7.83;100.00
75157;BME280;63736;50.076;8.198;2022-12-18T04:08:15;100826.41;;;-7.83;100.00
75157;BME280;63736;50.076;8.198;2022-12-18T04:10:40;100824.69;;;-7.81;100.00
75157;BME280;63736;50.076;8.198;2022-12-18T04:13:06;100824.69;;;-7.81;100.00
75157;BME280;63736;50.076;8.198;2022-12-18T04:15:34;100822.19;;;-7.71;100.00
75157;BME280;63736;50.076;8.198;2022-12-18T04:18:00;100827.38;;;-7.71;100.00
75157;BME280;63736;50.076;8.198;2022-12-18T04:20:25;100823.09;;;-7.69;100.00
75157;BME280;63736;50.076;8.198;2022-12-18T04:22:50;100833.47;;;-7.71;100.00
75157;BME280;63736;50.076;8.198;2022-12-18T04:25:16;100834.28;;;-7.75;100.00
75157;BME280;63736;50.076;8.198;2022-12-18T04:27:41;100828.19;;;-7.78;100.00
75157;BME280;63736;50.076;8.198;2022-12-18T04:30:07;100822.06;;;-7.84;100.00
75157;BME280;63736;50.076;8.198;2022-12-18T04:32:33;100811.69;;;-7.84;100.00
75157;BME280;63736;50.076;8.198;2022-12-18T04:34:59;100812.59;;;-7.80;100.00
75157;BME280;63736;50.076;8.198;2022-12-18T04:37:24;100811.78;;;-7.76;100.00
75157;BME280;63736;50.076;8.198;2022-12-18T04:39:49;100817.84;;;-7.74;100.00
75157;BME280;63736;50.076;8.198;2022-12-18T04:42:15;100821.25;;;-7.78;100.00
75157;BME280;63736;50.076;8.198;2022-12-18T04:44:40;100817.81;;;-7.78;100.00
75157;BME280;63736;50.076;8.198;2022-12-18T04:47:05;100817.78;;;-7.80;100.00
75157;BME280;63736;50.076;8.198;2022-12-18T04:49:31;100819.50;;;-7.82;100.00
75157;BME280;63736;50.076;8.198;2022-12-18T04:51:56;100833.31;;;-7.82;100.00
75157;BME280;63736;50.076;8.198;2022-12-18T04:54:21;100834.22;;;-7.81;100.00
75157;BME280;63736;50.076;8.198;2022-12-18T04:56:47;100835.03;;;-7.84;100.00
75157;BME280;63736;50.076;8.198;2022-12-18T04:59:12;100832.47;;;-7.82;100.00
75157;BME280;63736;50.076;8.198;2022-12-18T05:01:38;100838.56;;;-7.78;100.00
75157;BME280;63736;50.076;8.198;2022-12-18T05:04:03;100837.72;;;-7.76;100.00
75157;BME280;63736;50.076;8.198;2022-12-18T05:06:29;100840.31;;;-7.76;100.00
75157;BME280;63736;50.076;8.198;2022-12-18T05:08:54;100837.72;;;-7.76;100.00
75157;BME280;63736;50.076;8.198;2022-12-18T05:11:19;100839.44;;;-7.76;100.00
75157;BME280;63736;50.076;8.198;2022-12-18T05:13:45;100835.13;;;-7.76;100.00
75157;BME280;63736;50.076;8.198;2022-12-18T05:16:11;100843.81;;;-7.72;100.00
75157;BME280;63736;50.076;8.198;2022-12-18T05:18:37;100842.09;;;-7.70;100.00
75157;BME280;63736;50.076;8.198;2022-12-18T05:21:03;100842.09;;;-7.72;100.00
75157;BME280;63736;50.076;8.198;2022-12-18T05:23:28;100840.34;;;-7.74;100.00
75157;BME280;63736;50.076;8.198;2022-12-18T05:25:56;100844.66;;;-7.75;100.00
75157;BME280;63736;50.076;8.198;2022-12-18T05:28:23;100842.84;;;-7.81;100.00
75157;BME280;63736;50.076;8.198;2022-12-18T05:30:53;100835.06;;;-7.81;100.00
75157;BME280;63736;50.076;8.198;2022-12-18T05:33:20;100835.97;;;-7.80;100.00
75157;BME280;63736;50.076;8.198;2022-12-18T05:35:53;100831.63;;;-7.78;100.00
75157;BME280;63736;50.076;8.198;2022-12-18T05:38:20;100829.88;;;-7.79;100.00
75157;BME280;63736;50.076;8.198;2022-12-18T05:40:47;100832.47;;;-7.79;100.00
75157;BME280;63736;50.076;8.198;2022-12-18T05:43:12;100828.13;;;-7.82;100.00
75157;BME280;63736;50.076;8.198;2022-12-18T05:45:38;100831.63;;;-7.80;100.00
75157;BME280;63736;50.076;8.198;2022-12-18T05:48:04;100823.84;;;-7.80;100.00
75157;BME280;63736;50.076;8.198;2022-12-18T05:50:30;100821.25;;;-7.80;100.00
75157;BME280;63736;50.076;8.198;2022-12-18T05:52:55;100816.03;;;-7.81;100.00
75157;BME280;63736;50.076;8.198;2022-12-18T05:55:20;100814.38;;;-7.77;100.00
75157;BME280;63736;50.076;8.198;2022-12-18T05:57:46;100819.56;;;-7.76;100.00
75157;BME280;63736;50.076;8.198;2022-12-18T06:00:11;100822.19;;;-7.73;100.00
75157;BME280;63736;50.076;8.198;2022-12-18T06:02:37;100823.00;;;-7.77;100.00
75157;BME280;63736;50.076;8.198;2022-12-18T06:05:03;100828.19;;;-7.77;100.00
75157;BME280;63736;50.076;8.198;2022-12-18T06:07:28;100843.75;;;-7.77;100.00
75157;BME280;63736;50.076;8.198;2022-12-18T06:09:53;100841.19;;;-7.75;100.00
75157;BME280;63736;50.076;8.198;2022-12-18T06:12:18;100840.31;;;-7.76;100.00
75157;BME280;63736;50.076;8.198;2022-12-18T06:14:44;100841.19;;;-7.75;100.00
75157;BME280;63736;50.076;8.198;2022-12-18T06:17:09;100846.44;;;-7.71;100.00
75157;BME280;63736;50.076;8.198;2022-12-18T06:19:34;100842.09;;;-7.70;100.00
75157;BME280;63736;50.076;8.198;2022-12-18T06:22:00;100847.28;;;-7.70;100.00
75157;BME280;63736;50.076;8.198;2022-12-18T06:24:25;100855.97;;;-7.68;100.00
75157;BME280;63736;50.076;8.198;2022-12-18T06:26:50;100856.84;;;-7.68;100.00
75157;BME280;63736;50.076;8.198;2022-12-18T06:29:15;100856.81;;;-7.71;100.00
75157;BME280;63736;50.076;8.198;2022-12-18T06:31:41;100861.09;;;-7.73;100.00
75157;BME280;63736;50.076;8.198;2022-12-18T06:34:06;100863.69;;;-7.74;100.00
75157;BME280;63736;50.076;8.198;2022-12-18T06:36:32;100864.53;;;-7.75;100.00
75157;BME280;63736;50.076;8.198;2022-12-18T06:38:57;100870.59;;;-7.75;100.00
75157;BME280;63736;50.076;8.198;2022-12-18T06:41:22;100872.28;;;-7.77;100.00
75157;BME280;63736;50.076;8.198;2022-12-18T06:47:10;100871.38;;;-7.79;100.00
75157;BME280;63736;50.076;8.198;2022-12-18T06:49:35;100874.03;;;-7.76;100.00
75157;BME280;63736;50.076;8.198;2022-12-18T06:52:01;100876.66;;;-7.74;100.00
75157;BME280;63736;50.076;8.198;2022-12-18T06:54:26;100883.59;;;-7.72;100.00
75157;BME280;63736;50.076;8.198;2022-12-18T06:56:51;100881.03;;;-7.70;100.00
75157;BME280;63736;50.076;8.198;2022-12-18T06:59:17;100878.44;;;-7.70;100.00
75157;BME280;63736;50.076;8.198;2022-12-18T07:01:42;100880.16;;;-7.72;100.00
75157;BME280;63736;50.076;8.198;2022-12-18T07:04:07;100875.75;;;-7.76;100.00
75157;BME280;63736;50.076;8.198;2022-12-18T07:06:32;100878.34;;;-7.76;100.00
75157;BME280;63736;50.076;8.198;2022-12-18T07:08:58;100868.84;;;-7.76;100.00
75157;BME280;63736;50.076;8.198;2022-12-18T07:11:23;100878.38;;;-7.75;100.00
75157;BME280;63736;50.076;8.198;2022-12-18T07:13:49;100877.56;;;-7.72;100.00
75157;BME280;63736;50.076;8.198;2022-12-18T07:16:17;100880.19;;;-7.66;100.00
75157;BME280;63736;50.076;8.198;2022-12-18T07:18:42;100878.50;;;-7.64;100.00
75157;BME280;63736;50.076;8.198;2022-12-18T07:21:12;100867.31;;;-7.60;100.00
75157;BME280;63736;50.076;8.198;2022-12-18T07:23:37;100877.69;;;-7.60;100.00
75157;BME280;63736;50.076;8.198;2022-12-18T07:26:05;100879.44;;;-7.57;100.00
75157;BME280;63736;50.076;8.198;2022-12-18T07:28:31;100879.44;;;-7.60;100.00
75157;BME280;63736;50.076;8.198;2022-12-18T07:30:57;100873.34;;;-7.59;100.00
75157;BME280;63736;50.076;8.198;2022-12-18T07:33:23;100874.25;;;-7.59;100.00
75157;BME280;63736;50.076;8.198;2022-12-18T07:35:49;100873.41;;;-7.56;100.00
75157;BME280;63736;50.076;8.198;2022-12-18T07:38:14;100869.97;;;-7.54;100.00
75157;BME280;63736;50.076;8.198;2022-12-18T07:40:39;100870.84;;;-7.52;100.00
75157;BME280;63736;50.076;8.198;2022-12-18T07:43:05;100876.13;;;-7.47;100.00
75157;BME280;63736;50.076;8.198;2022-12-18T07:45:30;100877.88;;;-7.43;100.00
75157;BME280;63736;50.076;8.198;2022-12-18T07:47:55;100877.97;;;-7.37;100.00
75157;BME280;63736;50.076;8.198;2022-12-18T07:50:21;100888.53;;;-7.18;100.00
75157;BME280;63736;50.076;8.198;2022-12-18T07:52:46;100883.16;;;-6.41;100.00
75157;BME280;63736;50.076;8.198;2022-12-18T07:55:11;100891.59;;;-5.13;100.00
75157;BME280;63736;50.076;8.198;2022-12-18T07:57:37;100894.25;;;-4.02;100.00
75157;BME280;63736;50.076;8.198;2022-12-18T08:00:03;100883.50;;;-3.23;100.00
75157;BME280;63736;50.076;8.198;2022-12-18T08:02:30;100889.28;;;-2.71;100.00
75157;BME280;63736;50.076;8.198;2022-12-18T08:04:56;100886.09;;;-2.06;100.00
75157;BME280;63736;50.076;8.198;2022-12-18T08:07:21;100888.91;;;-1.44;100.00
75157;BME280;63736;50.076;8.198;2022-12-18T08:09:46;100885.41;;;-0.79;100.00
75157;BME280;63736;50.076;8.198;2022-12-18T08:12:11;100873.88;;;-0.17;94.99
75157;BME280;63736;50.076;8.198;2022-12-18T08:14:37;100872.94;;;0.34;89.98
75157;BME280;63736;50.076;8.198;2022-12-18T08:17:02;100871.94;;;0.82;86.75
75157;BME280;63736;50.076;8.198;2022-12-18T08:19:27;100873.88;;;1.13;83.50
75157;BME280;63736;50.076;8.198;2022-12-18T08:21:52;100867.78;;;1.48;81.45
75157;BME280;63736;50.076;8.198;2022-12-18T08:24:18;100868.25;;;1.97;79.05
75157;BME280;63736;50.076;8.198;2022-12-18T08:26:43;100875.97;;;2.38;75.47
75157;BME280;63736;50.076;8.198;2022-12-18T08:29:12;100879.56;;;2.66;73.24
75157;BME280;63736;50.076;8.198;2022-12-18T08:31:37;100867.63;;;2.82;72.23
75157;BME280;63736;50.076;8.198;2022-12-18T08:34:02;100861.66;;;3.05;70.05
75157;BME280;63736;50.076;8.198;2022-12-18T08:36:27;100856.78;;;3.20;69.32
75157;BME280;63736;50.076;8.198;2022-12-18T08:38:53;100850.44;;;3.27;67.57
75157;BME280;63736;50.076;8.198;2022-12-18T08:41:19;100846.75;;;3.31;65.96
75157;BME280;63736;50.076;8.198;2022-12-18T08:44:11;100850.22;;;3.33;65.80
75157;BME280;63736;50.076;8.198;2022-12-18T08:47:21;100846.31;;;3.45;65.12
75157;BME280;63736;50.076;8.198;2022-12-18T08:49:47;100850.22;;;3.33;64.49
75157;BME280;63736;50.076;8.198;2022-12-18T08:52:20;100851.03;;;3.08;64.09
75157;BME280;63736;50.076;8.198;2022-12-18T08:55:05;100844.44;;;2.93;65.34
75157;BME280;63736;50.076;8.198;2022-12-18T08:57:31;100853.16;;;2.67;65.69
75157;BME280;63736;50.076;8.198;2022-12-18T08:59:56;100848.84;;;2.33;66.59
75157;BME280;63736;50.076;8.198;2022-12-18T09:02:21;100854.50;;;2.19;67.78
75157;BME280;63736;50.076;8.198;2022-12-18T09:04:49;100860.16;;;2.05;69.19
75157;BME280;63736;50.076;8.198;2022-12-18T09:07:17;100870.53;;;1.78;69.87
75157;BME280;63736;50.076;8.198;2022-12-18T09:09:45;100873.06;;;1.47;70.90
75157;BME280;63736;50.076;8.198;2022-12-18T09:12:10;100880.56;;;1.28;73.14
75157;BME280;63736;50.076;8.198;2022-12-18T09:14:36;100887.16;;;1.08;74.54
75157;BME280;63736;50.076;8.198;2022-12-18T09:17:01;100888.50;;;0.86;75.43
75157;BME280;63736;50.076;8.198;2022-12-18T09:19:26;100886.69;;;0.47;75.46
75157;BME280;63736;50.076;8.198;2022-12-18T09:21:51;100885.59;;;0.13;77.58
75157;BME280;63736;50.076;8.198;2022-12-18T09:24:17;100883.31;;;-0.07;79.07
75157;BME280;63736;50.076;8.198;2022-12-18T09:26:43;100894.19;;;-0.27;79.87
75157;BME280;63736;50.076;8.198;2022-12-18T09:29:09;100899.72;;;-0.44;82.08
75157;BME280;63736;50.076;8.198;2022-12-18T09:31:34;100898.31;;;-0.67;82.32
75157;BME280;63736;50.076;8.198;2022-12-18T09:34:00;100893.31;;;-0.80;83.36
75157;BME280;63736;50.076;8.198;2022-12-18T09:36:25;100884.75;;;-0.93;82.82
75157;BME280;63736;50.076;8.198;2022-12-18T09:38:50;100879.75;;;-1.10;83.63
75157;BME280;63736;50.076;8.198;2022-12-18T09:44:43;100889.59;;;-1.29;87.31
75157;BME280;63736;50.076;8.198;2022-12-18T09:49:49;100901.00;;;-1.34;89.79
75157;BME280;63736;50.076;8.198;2022-12-18T09:52:21;100898.34;;;-1.30;90.80
75157;BME280;63736;50.076;8.198;2022-12-18T09:54:56;100896.63;;;-1.33;92.14
75157;BME280;63736;50.076;8.198;2022-12-18T09:57:24;100894.06;;;-1.36;91.68
75157;BME280;63736;50.076;8.198;2022-12-18T10:00:02;100895.81;;;-1.38;92.17
75157;BME280;63736;50.076;8.198;2022-12-18T10:02:31;100896.81;;;-1.48;92.12
75157;BME280;63736;50.076;8.198;2022-12-18T10:05:10;100887.41;;;-1.63;90.83
75157;BME280;63736;50.076;8.198;2022-12-18T10:10:28;100887.81;;;-2.04;88.93
75157;BME280;63736;50.076;8.198;2022-12-18T10:13:16;100876.66;;;-2.23;89.30
75157;BME280;63736;50.076;8.198;2022-12-18T10:16:09;100880.22;;;-2.30;89.57
75157;BME280;63736;50.076;8.198;2022-12-18T10:21:39;100886.56;;;-2.59;87.99
75157;BME280;63736;50.076;8.198;2022-12-18T10:27:04;100869.31;;;-2.82;88.35
75157;BME280;63736;50.076;8.198;2022-12-18T10:29:34;100864.97;;;-2.89;89.20
75157;BME280;63736;50.076;8.198;2022-12-18T10:31:59;100860.59;;;-2.84;90.27
75157;BME280;63736;50.076;8.198;2022-12-18T10:34:24;100864.09;;;-2.85;89.53
75157;BME280;63736;50.076;8.198;2022-12-18T10:36:50;100870.13;;;-2.76;91.28
75157;BME280;63736;50.076;8.198;2022-12-18T10:39:22;100869.16;;;-2.63;91.23
75157;BME280;63736;50.076;8.198;2022-12-18T10:41:48;100867.38;;;-2.58;92.23
75157;BME280;63736;50.076;8.198;2022-12-18T10:44:22;100868.19;;;-2.51;91.86
75157;BME280;63736;50.076;8.198;2022-12-18T10:46:50;100868.13;;;-2.45;92.20
75157;BME280;63736;50.076;8.198;2022-12-18T10:49:23;100857.66;;;-2.43;91.70
75157;BME280;63736;50.076;8.198;2022-12-18T10:51:51;100854.19;;;-2.45;91.83
75157;BME280;63736;50.076;8.198;2022-12-18T10:54:30;100856.75;;;-2.38;91.92
75157;BME280;63736;50.076;8.198;2022-12-18T10:57:20;100863.63;;;-2.29;91.41
75157;BME280;63736;50.076;8.198;2022-12-18T10:59:56;100871.47;;;-2.26;90.17
75157;BME280;63736;50.076;8.198;2022-12-18T11:02:36;100867.88;;;-2.19;90.06
75157;BME280;63736;50.076;8.198;2022-12-18T11:05:02;100869.69;;;-2.24;89.57
75157;BME280;63736;50.076;8.198;2022-12-18T11:07:50;100868.00;;;-2.29;88.90
75157;BME280;63736;50.076;8.198;2022-12-18T11:10:20;100863.66;;;-2.32;89.65
75157;BME280;63736;50.076;8.198;2022-12-18T11:12:49;100861.16;;;-2.46;89.17
75157;BME280;63736;50.076;8.198;2022-12-18T11:15:21;100862.94;;;-2.48;89.26
75157;BME280;63736;50.076;8.198;2022-12-18T11:17:50;100864.59;;;-2.41;90.34
75157;BME280;63736;50.076;8.198;2022-12-18T11:20:35;100864.66;;;-2.44;91.19
75157;BME280;63736;50.076;8.198;2022-12-18T11:23:05;100870.75;;;-2.42;92.03
75157;BME280;63736;50.076;8.198;2022-12-18T11:25:36;100860.28;;;-2.45;93.20
75157;BME280;63736;50.076;8.198;2022-12-18T11:28:44;100863.84;;;-2.51;92.34
75157;BME280;63736;50.076;8.198;2022-12-18T11:34:05;100861.34;;;-2.66;93.62
75157;BME280;63736;50.076;8.198;2022-12-18T11:36:42;100857.00;;;-2.69;94.08
75157;BME280;63736;50.076;8.198;2022-12-18T11:39:19;100857.88;;;-2.67;94.49
75157;BME280;63736;50.076;8.198;2022-12-18T11:44:36;100857.00;;;-2.69;94.86
75157;BME280;63736;50.076;8.198;2022-12-18T11:47:18;100862.22;;;-2.67;95.75
75157;BME280;63736;50.076;8.198;2022-12-18T11:49:49;100864.81;;;-2.66;95.65
75157;BME280;63736;50.076;8.198;2022-12-18T11:52:24;100870.94;;;-2.67;94.67
75157;BME280;63736;50.076;8.198;2022-12-18T11:54:52;100864.84;;;-2.69;95.17
75157;BME280;63736;50.076;8.198;2022-12-18T12:01:13;100856.97;;;-2.62;96.40
75157;BME280;63736;50.076;8.198;2022-12-18T12:06:31;100852.53;;;-2.54;97.01
75157;BME280;63736;50.076;8.198;2022-12-18T12:12:00;100846.56;;;-2.73;96.07
75157;BME280;63736;50.076;8.198;2022-12-18T12:14:40;100844.94;;;-2.87;96.85
75157;BME280;63736;50.076;8.198;2022-12-18T12:17:14;100848.41;;;-2.86;97.70
75157;BME280;63736;50.076;8.198;2022-12-18T12:25:37;100842.38;;;-2.94;98.64
75157;BME280;63736;50.076;8.198;2022-12-18T12:31:13;100831.97;;;-3.02;100.00
75157;BME280;63736;50.076;8.198;2022-12-18T12:39:19;100824.84;;;-2.82;100.00
75157;BME280;63736;50.076;8.198;2022-12-18T12:41:46;100822.16;;;-2.72;100.00
75157;BME280;63736;50.076;8.198;2022-12-18T12:44:34;100825.63;;;-2.69;100.00
75157;BME280;63736;50.076;8.198;2022-12-18T12:47:14;100832.59;;;-2.71;100.00
75157;BME280;63736;50.076;8.198;2022-12-18T12:49:43;100827.41;;;-2.75;100.00
75157;BME280;63736;50.076;8.198;2022-12-18T12:54:53;100810.84;;;-2.77;100.00
75157;BME280;63736;50.076;8.198;2022-12-18T13:00:26;100810.03;;;-2.84;99.68
75157;BME280;63736;50.076;8.198;2022-12-18T13:03:12;100794.41;;;-2.87;99.44
75157;BME280;63736;50.076;8.198;2022-12-18T13:08:59;100784.84;;;-2.94;100.00
75157;BME280;63736;50.076;8.198;2022-12-18T13:14:47;100798.78;;;-2.95;100.00
75157;BME280;63736;50.076;8.198;2022-12-18T13:19:44;100796.25;;;-3.02;100.00
75157;BME280;63736;50.076;8.198;2022-12-18T13:22:25;100795.38;;;-3.02;100.00
75157;BME280;63736;50.076;8.198;2022-12-18T13:24:53;100786.75;;;-3.12;99.91
75157;BME280;63736;50.076;8.198;2022-12-18T13:43:54;100773.84;;;-3.37;100.00
75157;BME280;63736;50.076;8.198;2022-12-18T13:46:45;100778.22;;;-3.45;100.00
75157;BME280;63736;50.076;8.198;2022-12-18T13:49:23;100773.06;;;-3.50;100.00
75157;BME280;63736;50.076;8.198;2022-12-18T13:51:51;100778.28;;;-3.54;100.00
75157;BME280;63736;50.076;8.198;2022-12-18T13:57:41;100779.19;;;-3.57;100.00
75157;BME280;63736;50.076;8.198;2022-12-18T14:02:48;100773.16;;;-3.67;100.00
75157;BME280;63736;50.076;8.198;2022-12-18T14:05:23;100778.34;;;-3.68;100.00
75157;BME280;63736;50.076;8.198;2022-12-18T14:07:48;100773.19;;;-3.74;100.00
75157;BME280;63736;50.076;8.198;2022-12-18T14:10:15;100762.72;;;-3.76;100.00
75157;BME280;63736;50.076;8.198;2022-12-18T14:12:45;100774.91;;;-3.73;100.00
75157;BME280;63736;50.076;8.198;2022-12-18T14:18:03;100781.84;;;-3.68;100.00
75157;BME280;63736;50.076;8.198;2022-12-18T14:20:41;100783.63;;;-3.74;100.00
75157;BME280;63736;50.076;8.198;2022-12-18T14:25:53;100780.22;;;-3.90;100.00
75157;BME280;63736;50.076;8.198;2022-12-18T14:28:18;100777.63;;;-3.93;100.00
75157;BME280;63736;50.076;8.198;2022-12-18T14:30:45;100781.97;;;-3.97;100.00
75157;BME280;63736;50.076;8.198;2022-12-18T14:33:13;100778.50;;;-4.01;100.00
75157;BME280;63736;50.076;8.198;2022-12-18T14:36:01;100767.22;;;-4.03;100.00
75157;BME280;63736;50.076;8.198;2022-12-18T14:38:32;100767.22;;;-4.04;100.00
75157;BME280;63736;50.076;8.198;2022-12-18T14:43:27;100781.16;;;-4.05;100.00
75157;BME280;63736;50.076;8.198;2022-12-18T14:45:52;100777.69;;;-4.10;100.00
75157;BME280;63736;50.076;8.198;2022-12-18T14:48:21;100771.63;;;-4.11;100.00
75157;BME280;63736;50.076;8.198;2022-12-18T14:51:05;100770.72;;;-4.11;100.00
75157;BME280;63736;50.076;8.198;2022-12-18T14:56:11;100778.56;;;-4.19;100.00
75157;BME280;63736;50.076;8.198;2022-12-18T14:58:38;100777.72;;;-4.26;100.00
75157;BME280;63736;50.076;8.198;2022-12-18T15:01:04;100766.44;;;-4.29;100.00
75157;BME280;63736;50.076;8.198;2022-12-18T15:03:30;100769.06;;;-4.33;100.00